createdAt,value
2018-08-10T00:03:21.253Z,26.54
2018-08-10T00:09:16.271Z,21.92
2018-08-10T00:15:11.234Z,21.92
2018-08-10T00:21:06.249Z,23
2018-08-10T00:27:01.260Z,22.86
2018-08-10T00:32:56.248Z,24.35
2018-08-10T00:38:51.303Z,24.23
2018-08-10T00:44:46.306Z,23.59
2018-08-10T00:50:41.298Z,23.37
2018-08-10T00:56:36.296Z,22.41
2018-08-10T01:02:31.289Z,23.42
2018-08-10T01:08:26.319Z,21.93
2018-08-10T01:14:21.408Z,23.59
2018-08-10T01:20:16.309Z,23.67
2018-08-10T01:26:11.310Z,23.91
2018-08-10T01:32:06.373Z,27.24
2018-08-10T01:38:01.302Z,25.95
2018-08-10T01:43:56.310Z,24.27
2018-08-10T01:49:51.334Z,24.75
2018-08-10T01:55:46.328Z,24.57
2018-08-10T02:01:41.329Z,25.13
2018-08-10T02:07:36.354Z,22.8
2018-08-10T02:13:31.348Z,26.79
2018-08-10T02:19:26.317Z,24.97
2018-08-10T02:25:21.379Z,23.25
2018-08-10T02:31:16.333Z,22.75
2018-08-10T02:37:11.353Z,24.15
2018-08-10T02:43:06.391Z,24.63
2018-08-10T02:49:01.390Z,26.88
2018-08-10T02:54:56.368Z,24.77
2018-08-10T03:00:51.365Z,22.36
2018-08-10T03:06:46.411Z,26.1
2018-08-10T03:12:41.367Z,24.4
2018-08-10T03:18:36.361Z,21.72
2018-08-10T03:24:31.387Z,23.55
2018-08-10T03:30:26.404Z,23.69
2018-08-10T03:36:21.405Z,23.53
2018-08-10T03:42:16.398Z,25.15
2018-08-10T03:48:11.396Z,22.55
2018-08-10T03:54:06.433Z,24.8
2018-08-10T04:00:01.531Z,22.47
2018-08-10T04:05:56.403Z,23.69
2018-08-10T04:11:51.429Z,24.79
2018-08-10T04:17:46.455Z,22.61
2018-08-10T04:23:41.448Z,22.16
2018-08-10T04:29:36.545Z,23.83
2018-08-10T04:35:31.436Z,22.31
2018-08-10T04:41:26.453Z,23.41
2018-08-10T04:47:21.463Z,28.29
2018-08-10T04:53:16.465Z,25.63
2018-08-10T04:59:11.466Z,23.73
2018-08-10T05:05:06.451Z,21.44
2018-08-10T05:11:01.454Z,22.53
2018-08-10T05:16:56.449Z,26.79
2018-08-10T05:22:51.449Z,23.26
2018-08-10T05:28:46.483Z,26.23
2018-08-10T05:34:41.528Z,24.36
2018-08-10T05:40:36.470Z,22.68
2018-08-10T05:46:31.473Z,23.67
2018-08-10T05:52:26.563Z,22.44
2018-08-10T05:58:21.498Z,20.75
2018-08-10T06:04:16.509Z,20.1
2018-08-10T06:10:11.514Z,21.01
2018-08-10T06:16:06.514Z,21.63
2018-08-10T06:22:01.508Z,20.77
2018-08-10T06:27:56.668Z,23.08
2018-08-10T06:33:51.553Z,21.21
2018-08-10T06:39:46.573Z,21.87
2018-08-10T06:45:41.527Z,23.18
2018-08-10T06:51:36.521Z,32.66
2018-08-10T06:57:31.525Z,23.86
2018-08-10T07:03:26.545Z,7.98
2018-08-10T07:09:21.538Z,23.46
2018-08-10T07:15:16.560Z,24.56
2018-08-10T07:21:11.537Z,19.35
2018-08-10T07:27:06.685Z,24.65
2018-08-10T07:33:01.610Z,18.45
2018-08-10T07:38:56.555Z,19.93
2018-08-10T07:44:51.581Z,19.16
2018-08-10T07:50:46.576Z,25.03
2018-08-10T07:56:41.569Z,20.94
2018-08-10T08:02:36.583Z,20.88
2018-08-10T08:08:31.624Z,23.53
2018-08-10T08:14:26.608Z,23.62
2018-08-10T08:20:21.615Z,22.02
2018-08-10T08:26:16.651Z,23.22
2018-08-10T08:32:11.602Z,18.9
2018-08-10T08:38:06.605Z,15.13
2018-08-10T08:44:01.606Z,15.27
2018-08-10T08:49:56.633Z,18.58
2018-08-10T08:55:51.635Z,18.18
2018-08-10T09:01:46.647Z,11.71
2018-08-10T09:07:41.788Z,14.62
2018-08-10T09:13:36.685Z,20.6
2018-08-10T09:19:31.677Z,16.02
2018-08-10T09:25:26.671Z,16.82
2018-08-10T09:31:21.670Z,12.11
2018-08-10T09:37:16.652Z,16.29
2018-08-10T09:43:11.649Z,12.29
2018-08-10T09:49:06.670Z,8.5
2018-08-10T09:55:01.698Z,8.68
2018-08-10T10:00:56.701Z,7.43
2018-08-10T10:06:51.689Z,5.5
2018-08-10T10:12:46.697Z,10.04
2018-08-10T10:18:41.687Z,6.26
2018-08-10T10:24:36.704Z,7.82
2018-08-10T10:30:31.737Z,6.64
2018-08-10T10:36:26.771Z,7.29
2018-08-10T10:42:21.762Z,5.97
2018-08-10T10:48:16.709Z,6.15
2018-08-10T10:54:11.731Z,7.84
2018-08-10T11:00:06.731Z,6.95
2018-08-10T11:06:01.747Z,5.79
2018-08-10T11:11:01.940Z,5.76
2018-08-10T11:16:56.985Z,4.25
2018-08-10T11:22:51.965Z,6.58
2018-08-10T11:28:46.952Z,6.98
2018-08-10T11:34:41.970Z,7.38
2018-08-10T11:40:36.967Z,9.76
2018-08-10T11:46:31.969Z,8.73
2018-08-10T11:52:27.000Z,7.3
2018-08-10T11:58:21.986Z,8.53
2018-08-10T12:04:16.999Z,5.01
2018-08-10T12:10:11.990Z,4.48
2018-08-10T12:16:06.995Z,5.94
2018-08-10T12:22:02.032Z,4.18
2018-08-10T12:27:57.030Z,7.98
2018-08-10T12:33:52.026Z,6.5
2018-08-10T12:39:47.064Z,5.11
2018-08-10T12:45:42.044Z,4.36
2018-08-10T12:51:37.021Z,6.41
2018-08-10T12:57:32.043Z,6.08
2018-08-10T13:03:27.053Z,4.5
2018-08-10T13:09:22.048Z,4.07
2018-08-10T13:15:17.041Z,4.11
2018-08-10T13:21:12.081Z,6.68
2018-08-10T13:27:07.072Z,4.5
2018-08-10T13:33:02.126Z,4.72
2018-08-10T13:38:57.058Z,6.37
2018-08-10T13:44:52.072Z,4.6
2018-08-10T13:50:47.075Z,6.9
2018-08-10T13:56:42.128Z,4.82
2018-08-10T14:02:37.092Z,5.25
2018-08-10T14:08:32.085Z,7.66
2018-08-10T14:14:27.140Z,9.69
2018-08-10T14:20:22.165Z,4.88
2018-08-10T14:26:17.116Z,4.65
2018-08-10T14:32:12.117Z,6.47
2018-08-10T14:38:07.109Z,6.4
2018-08-10T14:44:02.117Z,5.59
2018-08-10T14:49:57.178Z,6.6
2018-08-10T14:55:52.172Z,5.65
2018-08-10T15:01:47.153Z,7.3
2018-08-10T15:07:42.128Z,5.31
2018-08-10T15:13:37.175Z,7.05
2018-08-10T15:19:32.186Z,5.27
2018-08-10T15:25:27.137Z,7.5
2018-08-10T15:31:22.179Z,5
2018-08-10T15:37:17.167Z,9.23
2018-08-10T15:43:12.176Z,5.91
2018-08-10T15:49:07.152Z,9.62
2018-08-10T15:55:02.181Z,6.9
2018-08-10T16:00:57.174Z,4.48
2018-08-10T16:06:52.212Z,6.72
2018-08-10T16:12:47.188Z,8.51
2018-08-10T16:18:42.217Z,4.19
2018-08-10T16:24:37.206Z,4.36
2018-08-10T16:30:32.207Z,5.89
2018-08-10T16:36:27.218Z,6.08
2018-08-10T16:42:22.216Z,6.91
2018-08-10T16:48:17.274Z,5.87
2018-08-10T16:54:12.284Z,4.73
2018-08-10T17:00:07.218Z,7.1
2018-08-10T17:06:02.236Z,8.31
2018-08-10T17:11:57.271Z,4.64
2018-08-10T17:17:52.276Z,9.97
2018-08-10T17:23:47.259Z,3.96
2018-08-10T17:29:42.269Z,7.4
2018-08-10T17:35:37.270Z,5.89
2018-08-10T17:41:32.254Z,7.75
2018-08-10T17:47:27.311Z,4.81
2018-08-10T17:53:22.259Z,3.8
2018-08-10T17:59:17.274Z,7.13
2018-08-10T18:05:12.278Z,5.11
2018-08-10T18:11:07.295Z,7.96
2018-08-10T18:17:02.336Z,5.89
2018-08-10T18:22:57.297Z,5.61
2018-08-10T18:28:52.304Z,5.59
2018-08-10T18:34:47.374Z,4.24
2018-08-10T18:40:42.399Z,7.28
2018-08-10T18:46:37.326Z,8.44
2018-08-10T18:52:32.320Z,7.47
2018-08-10T18:58:27.316Z,5.78
2018-08-10T19:04:22.340Z,6.76
2018-08-10T19:10:17.336Z,4.84
2018-08-10T19:16:12.348Z,5.59
2018-08-10T19:22:07.349Z,7.01
2018-08-10T19:28:02.360Z,9.02
2018-08-10T19:33:57.347Z,6.05
2018-08-10T19:39:52.446Z,7.75
2018-08-10T19:45:47.361Z,7.74
2018-08-10T19:51:42.363Z,8.49
2018-08-10T19:57:37.362Z,7.17
2018-08-10T20:03:32.365Z,8.16
2018-08-10T20:09:27.391Z,7.75
2018-08-10T20:15:22.485Z,9.24
2018-08-10T20:21:17.396Z,6.56
2018-08-10T20:27:12.391Z,8.27
2018-08-10T20:33:07.395Z,7.8
2018-08-10T20:39:02.453Z,11.04
2018-08-10T20:44:57.391Z,6.69
2018-08-10T20:50:52.437Z,7.93
2018-08-10T20:56:47.382Z,6.98
2018-08-10T21:02:42.480Z,9
2018-08-10T21:08:37.429Z,6.19
2018-08-10T21:14:32.439Z,8.68
2018-08-10T21:20:27.444Z,6.05
2018-08-10T21:26:22.408Z,7.99
2018-08-10T21:32:17.448Z,8.75
2018-08-10T21:38:12.448Z,10.13
2018-08-10T21:44:07.454Z,7.32
2018-08-10T21:50:02.460Z,7.54
2018-08-10T21:55:57.451Z,7.23
2018-08-10T22:01:52.456Z,9.36
2018-08-10T22:07:47.456Z,9.23
2018-08-10T22:13:42.443Z,10.55
2018-08-10T22:19:37.461Z,6.81
2018-08-10T22:25:32.449Z,7.8
2018-08-10T22:31:27.473Z,6.54
2018-08-10T22:37:22.472Z,9.64
2018-08-10T22:43:17.481Z,7.4
2018-08-10T22:49:12.477Z,7.56
2018-08-10T22:55:07.490Z,8.42
2018-08-10T23:01:02.493Z,9.58
2018-08-10T23:06:57.548Z,7.45
2018-08-10T23:12:52.484Z,8.63
2018-08-10T23:18:47.509Z,7.3
2018-08-10T23:24:42.510Z,6.17
2018-08-10T23:30:37.637Z,7.08
2018-08-10T23:36:32.535Z,6.37
2018-08-10T23:42:27.530Z,6.84
2018-08-10T23:48:22.512Z,11.38
2018-08-10T23:54:17.549Z,7.52
